Terminal Aerodrome Forecast
Issued by NWS

Home | Current Version | Previous Version | Text Only | Print | Product List | Glossary On
Versions: 1 2 3 4 5 6 7 8 9 10 11 12 13
517
FTUS46 KSTO 291734
TAFSCK
TAF
KSCK 291734Z 2918/3018 27010KT P6SM BKN200
     FM292200 29015KT P6SM SCT250
     FM300700 30010KT P6SM FEW080
     FM301200 31025G30KT P6SM SKC WS020/33035KT=

USA.gov is the U.S. government's official web portal to all federal, state and local government web resources and services.